sensor_id;sensor_type;location;lat;lon;timestamp;temperature;humidity
43607;DHT22;29197;44.788;10.366;2023-03-09T00:02:40;15.90;99.90
43607;DHT22;29197;44.788;10.366;2023-03-09T00:05:29;15.80;99.90
43607;DHT22;29197;44.788;10.366;2023-03-09T00:08:19;15.70;99.90
43607;DHT22;29197;44.788;10.366;2023-03-09T00:11:08;15.70;99.90
43607;DHT22;29197;44.788;10.366;2023-03-09T00:13:56;15.70;99.90
43607;DHT22;29197;44.788;10.366;2023-03-09T00:16:45;15.60;99.90
43607;DHT22;29197;44.788;10.366;2023-03-09T00:19:34;15.50;99.90
43607;DHT22;29197;44.788;10.366;2023-03-09T00:22:23;15.60;99.90
43607;DHT22;29197;44.788;10.366;2023-03-09T00:25:12;15.60;99.90
43607;DHT22;29197;44.788;10.366;2023-03-09T00:28:01;15.70;99.90
43607;DHT22;29197;44.788;10.366;2023-03-09T00:30:50;15.70;99.90
43607;DHT22;29197;44.788;10.366;2023-03-09T00:33:38;15.80;99.90
43607;DHT22;29197;44.788;10.366;2023-03-09T00:36:27;15.30;99.90
43607;DHT22;29197;44.788;10.366;2023-03-09T00:39:16;15.30;99.90
43607;DHT22;29197;44.788;10.366;2023-03-09T00:42:06;15.30;99.90
43607;DHT22;29197;44.788;10.366;2023-03-09T00:44:54;15.30;99.90
43607;DHT22;29197;44.788;10.366;2023-03-09T00:47:43;15.40;99.90
43607;DHT22;29197;44.788;10.366;2023-03-09T00:50:32;15.40;99.90
43607;DHT22;29197;44.788;10.366;2023-03-09T00:53:20;15.50;99.90
43607;DHT22;29197;44.788;10.366;2023-03-09T00:56:12;15.40;99.90
43607;DHT22;29197;44.788;10.366;2023-03-09T00:59:03;15.70;99.90
43607;DHT22;29197;44.788;10.366;2023-03-09T01:01:52;15.70;99.90
43607;DHT22;29197;44.788;10.366;2023-03-09T01:04:40;15.60;99.90
43607;DHT22;29197;44.788;10.366;2023-03-09T01:07:29;15.50;99.90
43607;DHT22;29197;44.788;10.366;2023-03-09T01:10:19;15.40;99.90
43607;DHT22;29197;44.788;10.366;2023-03-09T01:13:08;15.40;99.90
43607;DHT22;29197;44.788;10.366;2023-03-09T01:15:58;15.50;99.90
43607;DHT22;29197;44.788;10.366;2023-03-09T01:18:47;15.50;99.90
43607;DHT22;29197;44.788;10.366;2023-03-09T01:21:35;15.50;99.90
43607;DHT22;29197;44.788;10.366;2023-03-09T01:24:24;15.40;99.90
43607;DHT22;29197;44.788;10.366;2023-03-09T01:27:13;15.50;99.90
43607;DHT22;29197;44.788;10.366;2023-03-09T01:30:02;15.70;99.90
43607;DHT22;29197;44.788;10.366;2023-03-09T01:32:52;15.70;99.90
43607;DHT22;29197;44.788;10.366;2023-03-09T01:35:41;15.40;99.90
43607;DHT22;29197;44.788;10.366;2023-03-09T01:38:29;15.30;99.90
43607;DHT22;29197;44.788;10.366;2023-03-09T01:41:19;15.30;99.90
43607;DHT22;29197;44.788;10.366;2023-03-09T01:44:10;15.40;99.90
43607;DHT22;29197;44.788;10.366;2023-03-09T01:46:59;15.40;99.90
43607;DHT22;29197;44.788;10.366;2023-03-09T01:49:50;15.40;99.90
43607;DHT22;29197;44.788;10.366;2023-03-09T01:52:38;15.60;99.90
43607;DHT22;29197;44.788;10.366;2023-03-09T01:55:34;15.50;99.90
43607;DHT22;29197;44.788;10.366;2023-03-09T01:58:26;15.60;99.90
43607;DHT22;29197;44.788;10.366;2023-03-09T02:01:17;15.40;99.90
43607;DHT22;29197;44.788;10.366;2023-03-09T02:04:10;15.30;99.90
43607;DHT22;29197;44.788;10.366;2023-03-09T02:07:02;15.50;99.90
43607;DHT22;29197;44.788;10.366;2023-03-09T02:09:54;15.40;99.90
43607;DHT22;29197;44.788;10.366;2023-03-09T02:12:49;15.40;99.90
43607;DHT22;29197;44.788;10.366;2023-03-09T02:15:40;15.50;99.90
43607;DHT22;29197;44.788;10.366;2023-03-09T02:18:28;15.10;99.90
43607;DHT22;29197;44.788;10.366;2023-03-09T02:21:26;15.00;99.90
43607;DHT22;29197;44.788;10.366;2023-03-09T02:24:22;15.00;99.90
43607;DHT22;29197;44.788;10.366;2023-03-09T02:27:17;14.90;99.90
43607;DHT22;29197;44.788;10.366;2023-03-09T02:30:07;14.90;99.90
43607;DHT22;29197;44.788;10.366;2023-03-09T02:33:04;15.00;99.90
43607;DHT22;29197;44.788;10.366;2023-03-09T02:35:53;14.90;99.90
43607;DHT22;29197;44.788;10.366;2023-03-09T02:38:42;15.00;99.90
43607;DHT22;29197;44.788;10.366;2023-03-09T02:41:31;14.90;99.90
43607;DHT22;29197;44.788;10.366;2023-03-09T02:44:21;14.90;99.90
43607;DHT22;29197;44.788;10.366;2023-03-09T02:47:13;15.00;99.90
43607;DHT22;29197;44.788;10.366;2023-03-09T02:50:04;14.90;99.90
43607;DHT22;29197;44.788;10.366;2023-03-09T02:52:53;14.90;99.90
43607;DHT22;29197;44.788;10.366;2023-03-09T02:55:42;15.10;99.90
43607;DHT22;29197;44.788;10.366;2023-03-09T02:58:30;15.20;99.90
43607;DHT22;29197;44.788;10.366;2023-03-09T03:01:20;14.60;99.90
43607;DHT22;29197;44.788;10.366;2023-03-09T03:04:08;14.30;99.90
43607;DHT22;29197;44.788;10.366;2023-03-09T03:06:57;14.50;99.90
43607;DHT22;29197;44.788;10.366;2023-03-09T03:09:46;14.70;99.90
43607;DHT22;29197;44.788;10.366;2023-03-09T03:12:34;14.70;99.90
43607;DHT22;29197;44.788;10.366;2023-03-09T03:15:23;14.70;99.90
43607;DHT22;29197;44.788;10.366;2023-03-09T03:18:12;14.70;99.90
43607;DHT22;29197;44.788;10.366;2023-03-09T03:21:01;14.70;99.90
43607;DHT22;29197;44.788;10.366;2023-03-09T03:23:49;14.80;99.90
43607;DHT22;29197;44.788;10.366;2023-03-09T03:26:38;14.70;99.90
43607;DHT22;29197;44.788;10.366;2023-03-09T03:29:27;14.60;99.90
43607;DHT22;29197;44.788;10.366;2023-03-09T03:32:15;14.60;99.90
43607;DHT22;29197;44.788;10.366;2023-03-09T03:35:06;14.70;99.90
43607;DHT22;29197;44.788;10.366;2023-03-09T03:37:54;14.80;99.90
43607;DHT22;29197;44.788;10.366;2023-03-09T03:40:43;14.80;99.90
43607;DHT22;29197;44.788;10.366;2023-03-09T03:43:31;14.80;99.90
43607;DHT22;29197;44.788;10.366;2023-03-09T03:46:20;14.80;99.90
43607;DHT22;29197;44.788;10.366;2023-03-09T03:49:08;14.90;99.90
43607;DHT22;29197;44.788;10.366;2023-03-09T03:51:58;14.80;99.90
43607;DHT22;29197;44.788;10.366;2023-03-09T03:54:47;14.80;99.90
43607;DHT22;29197;44.788;10.366;2023-03-09T03:57:35;14.80;99.90
43607;DHT22;29197;44.788;10.366;2023-03-09T04:00:24;14.80;99.90
43607;DHT22;29197;44.788;10.366;2023-03-09T04:03:13;14.90;99.90
43607;DHT22;29197;44.788;10.366;2023-03-09T04:06:02;14.90;99.90
43607;DHT22;29197;44.788;10.366;2023-03-09T04:08:52;14.90;99.90
43607;DHT22;29197;44.788;10.366;2023-03-09T04:11:40;14.80;99.90
43607;DHT22;29197;44.788;10.366;2023-03-09T04:14:30;14.60;99.90
43607;DHT22;29197;44.788;10.366;2023-03-09T04:17:19;14.50;99.90
43607;DHT22;29197;44.788;10.366;2023-03-09T04:20:09;14.50;99.90
43607;DHT22;29197;44.788;10.366;2023-03-09T04:22:58;14.60;99.90
43607;DHT22;29197;44.788;10.366;2023-03-09T04:25:54;14.60;99.90
43607;DHT22;29197;44.788;10.366;2023-03-09T04:28:43;14.50;99.90
43607;DHT22;29197;44.788;10.366;2023-03-09T04:31:31;14.30;99.90
43607;DHT22;29197;44.788;10.366;2023-03-09T04:34:20;14.30;99.90
43607;DHT22;29197;44.788;10.366;2023-03-09T04:37:11;14.40;99.90
43607;DHT22;29197;44.788;10.366;2023-03-09T04:39:59;14.30;99.90
43607;DHT22;29197;44.788;10.366;2023-03-09T04:42:49;14.30;99.90
43607;DHT22;29197;44.788;10.366;2023-03-09T04:45:38;14.30;99.90
43607;DHT22;29197;44.788;10.366;2023-03-09T04:48:26;14.30;99.90
43607;DHT22;29197;44.788;10.366;2023-03-09T04:51:15;14.30;99.90
43607;DHT22;29197;44.788;10.366;2023-03-09T04:54:04;14.20;99.90
43607;DHT22;29197;44.788;10.366;2023-03-09T04:56:52;14.20;99.90
43607;DHT22;29197;44.788;10.366;2023-03-09T04:59:42;14.10;99.90
43607;DHT22;29197;44.788;10.366;2023-03-09T05:02:31;14.00;99.90
43607;DHT22;29197;44.788;10.366;2023-03-09T05:05:19;14.00;99.90
43607;DHT22;29197;44.788;10.366;2023-03-09T05:08:08;14.10;99.90
43607;DHT22;29197;44.788;10.366;2023-03-09T05:10:56;14.00;99.90
43607;DHT22;29197;44.788;10.366;2023-03-09T05:13:45;14.00;99.90
43607;DHT22;29197;44.788;10.366;2023-03-09T05:16:35;14.00;99.90
43607;DHT22;29197;44.788;10.366;2023-03-09T05:19:23;14.10;99.90
43607;DHT22;29197;44.788;10.366;2023-03-09T05:22:12;13.90;99.90
43607;DHT22;29197;44.788;10.366;2023-03-09T05:25:00;13.80;99.90
43607;DHT22;29197;44.788;10.366;2023-03-09T05:27:49;14.00;99.90
43607;DHT22;29197;44.788;10.366;2023-03-09T05:30:37;14.20;99.90
43607;DHT22;29197;44.788;10.366;2023-03-09T05:33:29;14.40;99.90
43607;DHT22;29197;44.788;10.366;2023-03-09T05:36:19;14.50;99.90
43607;DHT22;29197;44.788;10.366;2023-03-09T05:39:08;14.60;99.90
43607;DHT22;29197;44.788;10.366;2023-03-09T05:41:56;14.60;99.90
43607;DHT22;29197;44.788;10.366;2023-03-09T05:44:45;14.40;99.90
43607;DHT22;29197;44.788;10.366;2023-03-09T05:47:33;14.00;99.90
43607;DHT22;29197;44.788;10.366;2023-03-09T05:50:23;13.90;99.90
43607;DHT22;29197;44.788;10.366;2023-03-09T05:53:12;13.90;99.90
43607;DHT22;29197;44.788;10.366;2023-03-09T05:56:01;13.90;99.90
43607;DHT22;29197;44.788;10.366;2023-03-09T05:58:51;13.30;99.90
43607;DHT22;29197;44.788;10.366;2023-03-09T06:01:39;13.30;99.90
43607;DHT22;29197;44.788;10.366;2023-03-09T06:04:28;13.40;99.90
43607;DHT22;29197;44.788;10.366;2023-03-09T06:07:18;13.40;99.90
43607;DHT22;29197;44.788;10.366;2023-03-09T06:10:08;13.30;99.90
43607;DHT22;29197;44.788;10.366;2023-03-09T06:12:57;13.50;99.90
43607;DHT22;29197;44.788;10.366;2023-03-09T06:15:46;13.20;99.90
43607;DHT22;29197;44.788;10.366;2023-03-09T06:18:34;13.20;99.90
43607;DHT22;29197;44.788;10.366;2023-03-09T06:21:23;13.20;99.90
43607;DHT22;29197;44.788;10.366;2023-03-09T06:24:13;13.20;99.90
43607;DHT22;29197;44.788;10.366;2023-03-09T06:27:01;12.70;99.90
43607;DHT22;29197;44.788;10.366;2023-03-09T06:29:51;12.60;99.90
43607;DHT22;29197;44.788;10.366;2023-03-09T06:32:40;12.60;99.90
43607;DHT22;29197;44.788;10.366;2023-03-09T06:35:29;12.40;99.90
43607;DHT22;29197;44.788;10.366;2023-03-09T06:38:17;12.30;99.90
43607;DHT22;29197;44.788;10.366;2023-03-09T06:41:07;12.00;99.90
43607;DHT22;29197;44.788;10.366;2023-03-09T06:43:56;12.00;99.90
43607;DHT22;29197;44.788;10.366;2023-03-09T06:46:44;12.10;99.90
43607;DHT22;29197;44.788;10.366;2023-03-09T06:49:33;12.30;99.90
43607;DHT22;29197;44.788;10.366;2023-03-09T06:55:11;12.50;99.90
43607;DHT22;29197;44.788;10.366;2023-03-09T06:58:04;12.80;99.90
43607;DHT22;29197;44.788;10.366;2023-03-09T07:00:52;13.00;99.90
43607;DHT22;29197;44.788;10.366;2023-03-09T07:03:41;13.10;99.90
43607;DHT22;29197;44.788;10.366;2023-03-09T07:06:30;13.00;99.90
43607;DHT22;29197;44.788;10.366;2023-03-09T07:09:18;13.10;99.90
43607;DHT22;29197;44.788;10.366;2023-03-09T07:12:07;13.40;99.90
43607;DHT22;29197;44.788;10.366;2023-03-09T07:14:57;13.40;99.90
43607;DHT22;29197;44.788;10.366;2023-03-09T07:17:45;13.30;99.90
43607;DHT22;29197;44.788;10.366;2023-03-09T07:20:34;13.20;99.90
43607;DHT22;29197;44.788;10.366;2023-03-09T07:23:23;13.30;99.90
43607;DHT22;29197;44.788;10.366;2023-03-09T07:26:11;13.60;99.90
43607;DHT22;29197;44.788;10.366;2023-03-09T07:29:00;13.80;99.90
43607;DHT22;29197;44.788;10.366;2023-03-09T07:34:40;13.90;99.90
43607;DHT22;29197;44.788;10.366;2023-03-09T07:37:28;14.00;99.90
43607;DHT22;29197;44.788;10.366;2023-03-09T07:40:17;14.30;99.90
43607;DHT22;29197;44.788;10.366;2023-03-09T07:43:06;14.40;99.90
43607;DHT22;29197;44.788;10.366;2023-03-09T07:45:57;14.30;99.90
43607;DHT22;29197;44.788;10.366;2023-03-09T07:48:47;14.50;99.90
43607;DHT22;29197;44.788;10.366;2023-03-09T07:51:35;14.30;99.90
43607;DHT22;29197;44.788;10.366;2023-03-09T07:54:25;14.40;99.90
43607;DHT22;29197;44.788;10.366;2023-03-09T07:57:16;14.50;99.90
43607;DHT22;29197;44.788;10.366;2023-03-09T08:00:07;14.80;99.90
43607;DHT22;29197;44.788;10.366;2023-03-09T08:05:50;15.10;99.90
43607;DHT22;29197;44.788;10.366;2023-03-09T08:08:42;15.30;99.90
43607;DHT22;29197;44.788;10.366;2023-03-09T08:11:30;15.40;99.90
43607;DHT22;29197;44.788;10.366;2023-03-09T08:14:20;15.50;99.90
43607;DHT22;29197;44.788;10.366;2023-03-09T08:17:09;15.70;99.90
43607;DHT22;29197;44.788;10.366;2023-03-09T08:19:57;15.90;99.90
43607;DHT22;29197;44.788;10.366;2023-03-09T08:22:47;15.90;99.90
43607;DHT22;29197;44.788;10.366;2023-03-09T08:25:36;16.10;99.90
43607;DHT22;29197;44.788;10.366;2023-03-09T08:28:25;16.20;99.90
43607;DHT22;29197;44.788;10.366;2023-03-09T08:31:15;16.40;99.90
43607;DHT22;29197;44.788;10.366;2023-03-09T08:34:05;16.40;99.90
43607;DHT22;29197;44.788;10.366;2023-03-09T08:36:56;16.40;99.90
43607;DHT22;29197;44.788;10.366;2023-03-09T08:39:46;16.20;99.90
43607;DHT22;29197;44.788;10.366;2023-03-09T08:42:34;16.10;99.90
43607;DHT22;29197;44.788;10.366;2023-03-09T08:45:23;16.20;99.90
43607;DHT22;29197;44.788;10.366;2023-03-09T08:48:11;16.50;99.90
43607;DHT22;29197;44.788;10.366;2023-03-09T08:51:01;16.60;99.90
43607;DHT22;29197;44.788;10.366;2023-03-09T08:53:49;16.60;99.90
43607;DHT22;29197;44.788;10.366;2023-03-09T08:56:39;16.60;99.90
43607;DHT22;29197;44.788;10.366;2023-03-09T08:59:28;16.60;99.90
43607;DHT22;29197;44.788;10.366;2023-03-09T09:02:18;16.20;99.90
43607;DHT22;29197;44.788;10.366;2023-03-09T09:05:08;15.50;99.90
43607;DHT22;29197;44.788;10.366;2023-03-09T09:07:57;15.60;99.90
43607;DHT22;29197;44.788;10.366;2023-03-09T09:10:45;15.80;99.90
43607;DHT22;29197;44.788;10.366;2023-03-09T09:13:36;16.10;99.90
43607;DHT22;29197;44.788;10.366;2023-03-09T09:16:25;16.30;99.90
43607;DHT22;29197;44.788;10.366;2023-03-09T09:19:15;16.60;99.90
43607;DHT22;29197;44.788;10.366;2023-03-09T09:22:04;16.70;99.90
43607;DHT22;29197;44.788;10.366;2023-03-09T09:24:52;16.70;99.90
43607;DHT22;29197;44.788;10.366;2023-03-09T09:27:41;16.60;99.90
43607;DHT22;29197;44.788;10.366;2023-03-09T09:30:31;16.70;99.90
43607;DHT22;29197;44.788;10.366;2023-03-09T09:33:20;16.70;99.90
43607;DHT22;29197;44.788;10.366;2023-03-09T09:39:00;16.90;99.90
43607;DHT22;29197;44.788;10.366;2023-03-09T09:41:52;17.00;99.90
43607;DHT22;29197;44.788;10.366;2023-03-09T09:44:44;17.10;99.90
43607;DHT22;29197;44.788;10.366;2023-03-09T09:47:35;17.20;99.90
43607;DHT22;29197;44.788;10.366;2023-03-09T09:53:25;17.40;99.90
43607;DHT22;29197;44.788;10.366;2023-03-09T09:56:22;17.30;99.90
43607;DHT22;29197;44.788;10.366;2023-03-09T10:02:27;17.80;99.90
43607;DHT22;29197;44.788;10.366;2023-03-09T10:05:27;17.70;99.90
43607;DHT22;29197;44.788;10.366;2023-03-09T10:08:26;17.80;99.90
43607;DHT22;29197;44.788;10.366;2023-03-09T10:14:25;18.10;99.90
43607;DHT22;29197;44.788;10.366;2023-03-09T10:17:18;18.20;99.90
43607;DHT22;29197;44.788;10.366;2023-03-09T10:20:13;18.30;99.90
43607;DHT22;29197;44.788;10.366;2023-03-09T10:23:12;18.20;99.90
43607;DHT22;29197;44.788;10.366;2023-03-09T10:26:14;18.00;99.90
43607;DHT22;29197;44.788;10.366;2023-03-09T10:29:14;18.30;99.90
43607;DHT22;29197;44.788;10.366;2023-03-09T10:34:57;18.70;99.90
43607;DHT22;29197;44.788;10.366;2023-03-09T10:37:48;18.90;99.90
43607;DHT22;29197;44.788;10.366;2023-03-09T10:40:42;19.10;99.90
43607;DHT22;29197;44.788;10.366;2023-03-09T10:43:32;19.40;99.90
43607;DHT22;29197;44.788;10.366;2023-03-09T10:46:22;19.50;99.90
43607;DHT22;29197;44.788;10.366;2023-03-09T10:49:12;19.60;99.90
43607;DHT22;29197;44.788;10.366;2023-03-09T10:52:03;19.80;99.90
43607;DHT22;29197;44.788;10.366;2023-03-09T10:54:53;19.90;99.90
43607;DHT22;29197;44.788;10.366;2023-03-09T10:57:54;19.90;99.90
43607;DHT22;29197;44.788;10.366;2023-03-09T11:00:52;19.90;99.90
43607;DHT22;29197;44.788;10.366;2023-03-09T11:06:33;20.50;99.90
43607;DHT22;29197;44.788;10.366;2023-03-09T11:09:27;20.50;99.90
43607;DHT22;29197;44.788;10.366;2023-03-09T11:12:21;20.70;99.90
43607;DHT22;29197;44.788;10.366;2023-03-09T11:15:25;20.70;99.90
43607;DHT22;29197;44.788;10.366;2023-03-09T11:18:27;20.80;99.90
43607;DHT22;29197;44.788;10.366;2023-03-09T11:21:23;20.90;99.90
43607;DHT22;29197;44.788;10.366;2023-03-09T11:24:13;21.00;99.90
43607;DHT22;29197;44.788;10.366;2023-03-09T11:27:07;20.80;99.90
43607;DHT22;29197;44.788;10.366;2023-03-09T11:30:02;20.80;99.90
43607;DHT22;29197;44.788;10.366;2023-03-09T11:32:54;20.80;99.90
43607;DHT22;29197;44.788;10.366;2023-03-09T11:35:43;20.80;99.90
43607;DHT22;29197;44.788;10.366;2023-03-09T11:38:33;21.10;99.90
43607;DHT22;29197;44.788;10.366;2023-03-09T11:41:25;21.20;99.90
43607;DHT22;29197;44.788;10.366;2023-03-09T11:44:23;21.30;99.90
43607;DHT22;29197;44.788;10.366;2023-03-09T11:47:23;21.50;99.90
43607;DHT22;29197;44.788;10.366;2023-03-09T11:53:12;20.40;99.90
43607;DHT22;29197;44.788;10.366;2023-03-09T11:59:05;21.10;99.90
43607;DHT22;29197;44.788;10.366;2023-03-09T12:01:59;21.20;99.90
43607;DHT22;29197;44.788;10.366;2023-03-09T12:04:51;21.50;99.90
43607;DHT22;29197;44.788;10.366;2023-03-09T12:07:47;21.80;99.90
43607;DHT22;29197;44.788;10.366;2023-03-09T12:10:41;21.90;99.90
43607;DHT22;29197;44.788;10.366;2023-03-09T12:13:33;22.10;99.90
43607;DHT22;29197;44.788;10.366;2023-03-09T12:16:26;22.30;99.90
43607;DHT22;29197;44.788;10.366;2023-03-09T12:19:19;22.50;99.90
43607;DHT22;29197;44.788;10.366;2023-03-09T12:22:15;22.70;99.90
43607;DHT22;29197;44.788;10.366;2023-03-09T12:25:07;23.00;99.90
43607;DHT22;29197;44.788;10.366;2023-03-09T12:28:04;23.20;99.90
43607;DHT22;29197;44.788;10.366;2023-03-09T12:30:55;23.40;99.90
43607;DHT22;29197;44.788;10.366;2023-03-09T12:34:23;23.40;99.90
43607;DHT22;29197;44.788;10.366;2023-03-09T12:37:41;23.50;99.90
43607;DHT22;29197;44.788;10.366;2023-03-09T12:40:41;23.50;99.90
43607;DHT22;29197;44.788;10.366;2023-03-09T12:43:45;23.50;99.90
43607;DHT22;29197;44.788;10.366;2023-03-09T12:46:51;23.40;99.90
43607;DHT22;29197;44.788;10.366;2023-03-09T12:49:48;23.50;99.90
43607;DHT22;29197;44.788;10.366;2023-03-09T12:53:01;23.60;99.90
43607;DHT22;29197;44.788;10.366;2023-03-09T12:55:55;23.50;99.90
43607;DHT22;29197;44.788;10.366;2023-03-09T12:58:47;23.90;99.90
43607;DHT22;29197;44.788;10.366;2023-03-09T13:04:27;23.60;99.90
43607;DHT22;29197;44.788;10.366;2023-03-09T13:07:17;23.50;99.90
43607;DHT22;29197;44.788;10.366;2023-03-09T13:13:34;22.80;99.90
43607;DHT22;29197;44.788;10.366;2023-03-09T13:16:52;23.00;99.90
43607;DHT22;29197;44.788;10.366;2023-03-09T13:19:48;23.40;99.90
43607;DHT22;29197;44.788;10.366;2023-03-09T13:22:38;23.40;99.90
43607;DHT22;29197;44.788;10.366;2023-03-09T13:25:48;23.50;99.90
43607;DHT22;29197;44.788;10.366;2023-03-09T13:28:40;23.50;99.90
43607;DHT22;29197;44.788;10.366;2023-03-09T13:31:34;23.60;99.90
43607;DHT22;29197;44.788;10.366;2023-03-09T13:34:26;23.70;99.90
43607;DHT22;29197;44.788;10.366;2023-03-09T13:37:18;23.70;99.90
43607;DHT22;29197;44.788;10.366;2023-03-09T13:40:25;23.70;99.90
43607;DHT22;29197;44.788;10.366;2023-03-09T13:43:16;23.70;99.90
43607;DHT22;29197;44.788;10.366;2023-03-09T13:46:16;23.80;99.90
43607;DHT22;29197;44.788;10.366;2023-03-09T13:49:07;23.80;99.90
43607;DHT22;29197;44.788;10.366;2023-03-09T13:54:50;23.80;99.90
43607;DHT22;29197;44.788;10.366;2023-03-09T13:57:40;23.80;99.90
43607;DHT22;29197;44.788;10.366;2023-03-09T14:00:28;23.90;99.90
43607;DHT22;29197;44.788;10.366;2023-03-09T14:03:18;23.70;99.90
43607;DHT22;29197;44.788;10.366;2023-03-09T14:06:09;23.60;99.90
43607;DHT22;29197;44.788;10.366;2023-03-09T14:09:28;23.70;99.90
43607;DHT22;29197;44.788;10.366;2023-03-09T14:12:23;23.50;99.90
43607;DHT22;29197;44.788;10.366;2023-03-09T14:15:16;23.50;99.90
43607;DHT22;29197;44.788;10.366;2023-03-09T14:18:22;23.50;99.90
43607;DHT22;29197;44.788;10.366;2023-03-09T14:21:20;23.20;99.90
43607;DHT22;29197;44.788;10.366;2023-03-09T14:24:11;23.30;99.90
43607;DHT22;29197;44.788;10.366;2023-03-09T14:27:20;23.20;99.90
43607;DHT22;29197;44.788;10.366;2023-03-09T14:30:32;23.00;99.90
43607;DHT22;29197;44.788;10.366;2023-03-09T14:33:30;22.70;99.90
43607;DHT22;29197;44.788;10.366;2023-03-09T14:36:21;22.60;99.90
43607;DHT22;29197;44.788;10.366;2023-03-09T14:39:22;22.40;99.90
43607;DHT22;29197;44.788;10.366;2023-03-09T14:42:24;22.10;99.90
43607;DHT22;29197;44.788;10.366;2023-03-09T14:45:22;22.00;99.90
43607;DHT22;29197;44.788;10.366;2023-03-09T14:48:11;21.80;99.90
43607;DHT22;29197;44.788;10.366;2023-03-09T14:51:12;21.50;99.90
43607;DHT22;29197;44.788;10.366;2023-03-09T14:54:07;21.20;99.90
43607;DHT22;29197;44.788;10.366;2023-03-09T14:56:57;21.20;99.90
43607;DHT22;29197;44.788;10.366;2023-03-09T14:59:46;21.40;99.90
43607;DHT22;29197;44.788;10.366;2023-03-09T15:02:35;21.10;99.90
43607;DHT22;29197;44.788;10.366;2023-03-09T15:05:24;20.80;99.90
43607;DHT22;29197;44.788;10.366;2023-03-09T15:08:14;20.60;99.90
43607;DHT22;29197;44.788;10.366;2023-03-09T15:11:03;20.70;99.90
43607;DHT22;29197;44.788;10.366;2023-03-09T15:13:52;20.50;99.90
43607;DHT22;29197;44.788;10.366;2023-03-09T15:16:41;20.50;99.90
43607;DHT22;29197;44.788;10.366;2023-03-09T15:28:00;19.90;99.90
43607;DHT22;29197;44.788;10.366;2023-03-09T15:30:48;19.90;99.90
43607;DHT22;29197;44.788;10.366;2023-03-09T15:33:37;20.00;99.90
43607;DHT22;29197;44.788;10.366;2023-03-09T15:36:26;19.90;99.90
43607;DHT22;29197;44.788;10.366;2023-03-09T15:39:14;19.90;99.90
43607;DHT22;29197;44.788;10.366;2023-03-09T15:42:04;19.70;99.90
43607;DHT22;29197;44.788;10.366;2023-03-09T15:44:53;19.70;99.90
43607;DHT22;29197;44.788;10.366;2023-03-09T15:47:41;19.80;99.90
43607;DHT22;29197;44.788;10.366;2023-03-09T15:50:30;19.60;99.90
43607;DHT22;29197;44.788;10.366;2023-03-09T15:53:20;19.60;99.90
43607;DHT22;29197;44.788;10.366;2023-03-09T15:59:00;19.40;99.90
43607;DHT22;29197;44.788;10.366;2023-03-09T16:01:48;19.20;99.90
43607;DHT22;29197;44.788;10.366;2023-03-09T16:04:38;19.10;99.90
43607;DHT22;29197;44.788;10.366;2023-03-09T16:07:27;19.10;99.90
43607;DHT22;29197;44.788;10.366;2023-03-09T16:10:16;19.10;99.90
43607;DHT22;29197;44.788;10.366;2023-03-09T16:13:05;19.20;99.90
43607;DHT22;29197;44.788;10.366;2023-03-09T16:15:55;19.10;99.90
43607;DHT22;29197;44.788;10.366;2023-03-09T16:18:43;19.10;99.90
43607;DHT22;29197;44.788;10.366;2023-03-09T16:21:32;19.10;99.90
43607;DHT22;29197;44.788;10.366;2023-03-09T16:24:21;19.10;99.90
43607;DHT22;29197;44.788;10.366;2023-03-09T16:27:09;19.20;99.90
43607;DHT22;29197;44.788;10.366;2023-03-09T16:29:58;19.10;99.90
43607;DHT22;29197;44.788;10.366;2023-03-09T16:32:50;19.30;99.90
43607;DHT22;29197;44.788;10.366;2023-03-09T16:35:39;19.40;99.90
43607;DHT22;29197;44.788;10.366;2023-03-09T16:38:29;19.40;99.90
43607;DHT22;29197;44.788;10.366;2023-03-09T16:41:18;19.30;99.90
43607;DHT22;29197;44.788;10.366;2023-03-09T16:44:14;19.30;99.90
43607;DHT22;29197;44.788;10.366;2023-03-09T16:47:04;19.10;99.90
43607;DHT22;29197;44.788;10.366;2023-03-09T16:49:58;19.10;99.90
43607;DHT22;29197;44.788;10.366;2023-03-09T16:52:47;19.10;99.90
43607;DHT22;29197;44.788;10.366;2023-03-09T16:55:35;19.10;99.90
43607;DHT22;29197;44.788;10.366;2023-03-09T16:58:24;17.70;99.90
43607;DHT22;29197;44.788;10.366;2023-03-09T17:01:15;19.20;99.90
43607;DHT22;29197;44.788;10.366;2023-03-09T17:04:04;19.30;99.90
43607;DHT22;29197;44.788;10.366;2023-03-09T17:06:55;18.90;99.90
43607;DHT22;29197;44.788;10.366;2023-03-09T17:09:44;18.70;99.90
43607;DHT22;29197;44.788;10.366;2023-03-09T17:12:34;18.70;99.90
43607;DHT22;29197;44.788;10.366;2023-03-09T17:15:22;18.60;99.90
43607;DHT22;29197;44.788;10.366;2023-03-09T17:18:11;18.70;99.90
43607;DHT22;29197;44.788;10.366;2023-03-09T17:20:59;18.60;99.90
43607;DHT22;29197;44.788;10.366;2023-03-09T17:23:49;19.70;99.90
43607;DHT22;29197;44.788;10.366;2023-03-09T17:26:39;18.40;99.90
43607;DHT22;29197;44.788;10.366;2023-03-09T17:29:27;18.40;99.90
43607;DHT22;29197;44.788;10.366;2023-03-09T17:32:16;18.50;99.90
43607;DHT22;29197;44.788;10.366;2023-03-09T17:35:05;18.60;99.90
43607;DHT22;29197;44.788;10.366;2023-03-09T17:37:55;18.70;99.90
43607;DHT22;29197;44.788;10.366;2023-03-09T17:40:47;18.70;99.90
43607;DHT22;29197;44.788;10.366;2023-03-09T17:43:36;18.50;99.90
43607;DHT22;29197;44.788;10.366;2023-03-09T17:46:25;18.50;99.90
43607;DHT22;29197;44.788;10.366;2023-03-09T17:49:14;18.50;99.90
43607;DHT22;29197;44.788;10.366;2023-03-09T17:52:03;18.50;99.90
43607;DHT22;29197;44.788;10.366;2023-03-09T17:54:53;18.60;99.90
43607;DHT22;29197;44.788;10.366;2023-03-09T17:57:43;18.50;99.90
43607;DHT22;29197;44.788;10.366;2023-03-09T18:00:31;18.50;99.90
43607;DHT22;29197;44.788;10.366;2023-03-09T18:03:23;18.50;99.90
43607;DHT22;29197;44.788;10.366;2023-03-09T18:06:14;18.50;99.90
43607;DHT22;29197;44.788;10.366;2023-03-09T18:09:03;18.50;99.90
43607;DHT22;29197;44.788;10.366;2023-03-09T18:11:52;18.60;99.90
43607;DHT22;29197;44.788;10.366;2023-03-09T18:14:42;18.50;99.90
43607;DHT22;29197;44.788;10.366;2023-03-09T18:17:30;18.50;99.90
43607;DHT22;29197;44.788;10.366;2023-03-09T18:20:19;18.70;99.90
43607;DHT22;29197;44.788;10.366;2023-03-09T18:23:07;18.30;99.90
43607;DHT22;29197;44.788;10.366;2023-03-09T18:25:56;17.90;99.90
43607;DHT22;29197;44.788;10.366;2023-03-09T18:28:44;17.80;99.90
43607;DHT22;29197;44.788;10.366;2023-03-09T18:31:34;17.70;99.90
43607;DHT22;29197;44.788;10.366;2023-03-09T18:34:23;17.50;99.90
43607;DHT22;29197;44.788;10.366;2023-03-09T18:37:12;17.60;99.90